sensor_id;sensor_type;location;lat;lon;timestamp;P1;durP1;ratioP1;P2;durP2;ratioP2
16039;SDS011;8124;48.634;8.120;2023-09-19T00:02:33;41.72;;;37.10;;
16039;SDS011;8124;48.634;8.120;2023-09-19T00:07:37;42.05;;;37.45;;
16039;SDS011;8124;48.634;8.120;2023-09-19T00:12:43;42.08;;;37.30;;
16039;SDS011;8124;48.634;8.120;2023-09-19T00:17:47;41.25;;;36.75;;
16039;SDS011;8124;48.634;8.120;2023-09-19T00:22:50;42.53;;;36.97;;
16039;SDS011;8124;48.634;8.120;2023-09-19T00:27:55;42.45;;;37.45;;
16039;SDS011;8124;48.634;8.120;2023-09-19T00:33:00;41.67;;;37.08;;
16039;SDS011;8124;48.634;8.120;2023-09-19T00:38:08;42.97;;;37.05;;
16039;SDS011;8124;48.634;8.120;2023-09-19T00:43:13;41.58;;;37.05;;
16039;SDS011;8124;48.634;8.120;2023-09-19T00:48:18;41.47;;;36.97;;
16039;SDS011;8124;48.634;8.120;2023-09-19T00:53:23;41.50;;;36.70;;
16039;SDS011;8124;48.634;8.120;2023-09-19T00:58:29;41.03;;;36.55;;
16039;SDS011;8124;48.634;8.120;2023-09-19T01:03:35;41.63;;;36.92;;
16039;SDS011;8124;48.634;8.120;2023-09-19T01:08:40;41.45;;;36.92;;
16039;SDS011;8124;48.634;8.120;2023-09-19T01:13:50;41.38;;;36.78;;
16039;SDS011;8124;48.634;8.120;2023-09-19T01:19:01;41.30;;;36.78;;
16039;SDS011;8124;48.634;8.120;2023-09-19T01:24:33;41.70;;;36.70;;
16039;SDS011;8124;48.634;8.120;2023-09-19T01:29:49;42.85;;;36.72;;
16039;SDS011;8124;48.634;8.120;2023-09-19T01:34:55;42.50;;;37.30;;
16039;SDS011;8124;48.634;8.120;2023-09-19T01:40:01;41.75;;;36.78;;
16039;SDS011;8124;48.634;8.120;2023-09-19T01:45:11;42.35;;;36.95;;
16039;SDS011;8124;48.634;8.120;2023-09-19T01:50:21;41.50;;;36.90;;
16039;SDS011;8124;48.634;8.120;2023-09-19T01:55:46;41.65;;;37.03;;
16039;SDS011;8124;48.634;8.120;2023-09-19T02:00:51;41.28;;;36.78;;
16039;SDS011;8124;48.634;8.120;2023-09-19T02:05:58;43.22;;;36.92;;
16039;SDS011;8124;48.634;8.120;2023-09-19T02:11:02;41.45;;;36.67;;
16039;SDS011;8124;48.634;8.120;2023-09-19T02:16:05;43.55;;;36.97;;
16039;SDS011;8124;48.634;8.120;2023-09-19T02:21:12;42.53;;;36.90;;
16039;SDS011;8124;48.634;8.120;2023-09-19T02:26:15;43.05;;;37.25;;
16039;SDS011;8124;48.634;8.120;2023-09-19T02:31:18;43.15;;;36.92;;
16039;SDS011;8124;48.634;8.120;2023-09-19T02:36:22;43.63;;;37.03;;
16039;SDS011;8124;48.634;8.120;2023-09-19T02:41:26;43.72;;;36.83;;
16039;SDS011;8124;48.634;8.120;2023-09-19T02:46:30;42.25;;;37.58;;
16039;SDS011;8124;48.634;8.120;2023-09-19T02:51:35;42.83;;;37.63;;
16039;SDS011;8124;48.634;8.120;2023-09-19T02:56:38;42.83;;;38.22;;
16039;SDS011;8124;48.634;8.120;2023-09-19T03:01:42;44.13;;;37.33;;
16039;SDS011;8124;48.634;8.120;2023-09-19T03:06:49;42.80;;;38.15;;
16039;SDS011;8124;48.634;8.120;2023-09-19T03:11:53;48.03;;;39.75;;
16039;SDS011;8124;48.634;8.120;2023-09-19T03:16:56;42.85;;;37.13;;
16039;SDS011;8124;48.634;8.120;2023-09-19T03:22:00;42.13;;;37.53;;
16039;SDS011;8124;48.634;8.120;2023-09-19T03:27:05;42.58;;;37.97;;
16039;SDS011;8124;48.634;8.120;2023-09-19T03:32:10;44.65;;;37.55;;
16039;SDS011;8124;48.634;8.120;2023-09-19T03:37:15;42.05;;;37.38;;
16039;SDS011;8124;48.634;8.120;2023-09-19T03:42:18;42.05;;;37.35;;
16039;SDS011;8124;48.634;8.120;2023-09-19T03:47:27;42.58;;;37.97;;
16039;SDS011;8124;48.634;8.120;2023-09-19T03:52:33;43.35;;;37.95;;
16039;SDS011;8124;48.634;8.120;2023-09-19T03:57:37;42.90;;;37.78;;
16039;SDS011;8124;48.634;8.120;2023-09-19T04:02:40;44.38;;;37.47;;
16039;SDS011;8124;48.634;8.120;2023-09-19T04:07:45;42.13;;;37.15;;
16039;SDS011;8124;48.634;8.120;2023-09-19T04:12:52;42.10;;;37.25;;
16039;SDS011;8124;48.634;8.120;2023-09-19T04:17:56;43.30;;;37.63;;
16039;SDS011;8124;48.634;8.120;2023-09-19T04:23:00;42.67;;;37.40;;
16039;SDS011;8124;48.634;8.120;2023-09-19T04:28:06;42.47;;;37.00;;
16039;SDS011;8124;48.634;8.120;2023-09-19T04:33:10;41.55;;;37.00;;
16039;SDS011;8124;48.634;8.120;2023-09-19T04:38:17;42.70;;;37.30;;
16039;SDS011;8124;48.634;8.120;2023-09-19T04:43:20;43.15;;;37.63;;
16039;SDS011;8124;48.634;8.120;2023-09-19T04:48:23;43.97;;;37.53;;
16039;SDS011;8124;48.634;8.120;2023-09-19T04:53:27;41.88;;;37.15;;
16039;SDS011;8124;48.634;8.120;2023-09-19T04:58:30;47.03;;;37.25;;
16039;SDS011;8124;48.634;8.120;2023-09-19T05:03:34;43.83;;;37.25;;
16039;SDS011;8124;48.634;8.120;2023-09-19T05:08:39;44.13;;;37.40;;
16039;SDS011;8124;48.634;8.120;2023-09-19T05:13:42;42.15;;;37.30;;
16039;SDS011;8124;48.634;8.120;2023-09-19T05:18:45;44.30;;;37.55;;
16039;SDS011;8124;48.634;8.120;2023-09-19T05:23:49;45.90;;;37.38;;
16039;SDS011;8124;48.634;8.120;2023-09-19T05:28:54;41.75;;;37.05;;
16039;SDS011;8124;48.634;8.120;2023-09-19T05:33:57;41.55;;;36.97;;
16039;SDS011;8124;48.634;8.120;2023-09-19T05:39:02;42.70;;;37.97;;
16039;SDS011;8124;48.634;8.120;2023-09-19T05:44:06;42.55;;;37.22;;
16039;SDS011;8124;48.634;8.120;2023-09-19T05:49:09;41.58;;;37.03;;
16039;SDS011;8124;48.634;8.120;2023-09-19T05:54:13;41.47;;;36.70;;
16039;SDS011;8124;48.634;8.120;2023-09-19T05:59:16;41.88;;;37.28;;
16039;SDS011;8124;48.634;8.120;2023-09-19T06:04:19;42.63;;;37.38;;
16039;SDS011;8124;48.634;8.120;2023-09-19T06:09:24;42.15;;;37.55;;
16039;SDS011;8124;48.634;8.120;2023-09-19T06:14:29;41.90;;;37.30;;
16039;SDS011;8124;48.634;8.120;2023-09-19T06:19:32;41.72;;;37.15;;
16039;SDS011;8124;48.634;8.120;2023-09-19T06:24:36;43.00;;;37.28;;
16039;SDS011;8124;48.634;8.120;2023-09-19T06:29:39;41.83;;;37.13;;
16039;SDS011;8124;48.634;8.120;2023-09-19T06:34:42;42.95;;;37.08;;
16039;SDS011;8124;48.634;8.120;2023-09-19T06:39:49;41.80;;;37.20;;
16039;SDS011;8124;48.634;8.120;2023-09-19T06:44:51;43.05;;;37.03;;
16039;SDS011;8124;48.634;8.120;2023-09-19T06:49:54;41.55;;;36.85;;
16039;SDS011;8124;48.634;8.120;2023-09-19T06:54:59;41.35;;;36.75;;
16039;SDS011;8124;48.634;8.120;2023-09-19T07:00:04;42.40;;;37.60;;
16039;SDS011;8124;48.634;8.120;2023-09-19T07:05:10;42.65;;;37.22;;
16039;SDS011;8124;48.634;8.120;2023-09-19T07:10:15;41.92;;;37.05;;
16039;SDS011;8124;48.634;8.120;2023-09-19T07:15:19;41.58;;;37.00;;
16039;SDS011;8124;48.634;8.120;2023-09-19T07:20:23;44.00;;;37.67;;
16039;SDS011;8124;48.634;8.120;2023-09-19T07:25:29;41.60;;;37.00;;
16039;SDS011;8124;48.634;8.120;2023-09-19T07:30:32;41.83;;;37.28;;
16039;SDS011;8124;48.634;8.120;2023-09-19T07:35:40;41.33;;;36.83;;
16039;SDS011;8124;48.634;8.120;2023-09-19T07:40:48;41.25;;;36.75;;
16039;SDS011;8124;48.634;8.120;2023-09-19T07:45:51;42.45;;;37.05;;
16039;SDS011;8124;48.634;8.120;2023-09-19T07:50:54;43.90;;;37.13;;
16039;SDS011;8124;48.634;8.120;2023-09-19T07:56:02;43.05;;;37.08;;
16039;SDS011;8124;48.634;8.120;2023-09-19T08:01:07;42.20;;;36.95;;
16039;SDS011;8124;48.634;8.120;2023-09-19T08:06:11;45.22;;;37.60;;
16039;SDS011;8124;48.634;8.120;2023-09-19T08:11:17;41.83;;;37.20;;
16039;SDS011;8124;48.634;8.120;2023-09-19T08:16:22;44.30;;;37.35;;
16039;SDS011;8124;48.634;8.120;2023-09-19T08:21:26;41.90;;;37.33;;
16039;SDS011;8124;48.634;8.120;2023-09-19T08:26:32;44.00;;;38.25;;
16039;SDS011;8124;48.634;8.120;2023-09-19T08:31:35;42.97;;;37.72;;
16039;SDS011;8124;48.634;8.120;2023-09-19T08:36:39;43.28;;;38.58;;
16039;SDS011;8124;48.634;8.120;2023-09-19T08:41:44;43.13;;;37.85;;
16039;SDS011;8124;48.634;8.120;2023-09-19T08:46:47;43.30;;;37.85;;
16039;SDS011;8124;48.634;8.120;2023-09-19T08:51:58;43.50;;;37.72;;
16039;SDS011;8124;48.634;8.120;2023-09-19T08:57:09;43.75;;;38.28;;
16039;SDS011;8124;48.634;8.120;2023-09-19T09:02:13;42.78;;;38.08;;
16039;SDS011;8124;48.634;8.120;2023-09-19T09:07:18;43.28;;;37.63;;
16039;SDS011;8124;48.634;8.120;2023-09-19T09:12:24;42.72;;;38.08;;
16039;SDS011;8124;48.634;8.120;2023-09-19T09:17:27;42.75;;;38.10;;
16039;SDS011;8124;48.634;8.120;2023-09-19T09:22:30;43.50;;;38.03;;
16039;SDS011;8124;48.634;8.120;2023-09-19T09:27:35;42.83;;;38.17;;
16039;SDS011;8124;48.634;8.120;2023-09-19T09:32:38;42.75;;;38.05;;
16039;SDS011;8124;48.634;8.120;2023-09-19T09:37:59;43.00;;;37.85;;
16039;SDS011;8124;48.634;8.120;2023-09-19T09:43:07;43.00;;;38.35;;
16039;SDS011;8124;48.634;8.120;2023-09-19T09:48:28;42.40;;;37.78;;
16039;SDS011;8124;48.634;8.120;2023-09-19T09:53:33;43.90;;;38.83;;
16039;SDS011;8124;48.634;8.120;2023-09-19T09:58:49;44.00;;;38.05;;
16039;SDS011;8124;48.634;8.120;2023-09-19T10:03:56;44.00;;;38.05;;
16039;SDS011;8124;48.634;8.120;2023-09-19T10:09:03;42.55;;;37.95;;
16039;SDS011;8124;48.634;8.120;2023-09-19T10:14:24;44.30;;;38.33;;
16039;SDS011;8124;48.634;8.120;2023-09-19T10:19:36;42.75;;;38.10;;
16039;SDS011;8124;48.634;8.120;2023-09-19T10:24:40;44.47;;;39.10;;
16039;SDS011;8124;48.634;8.120;2023-09-19T10:30:02;44.80;;;38.35;;
16039;SDS011;8124;48.634;8.120;2023-09-19T10:35:11;43.08;;;38.38;;
16039;SDS011;8124;48.634;8.120;2023-09-19T10:40:16;42.90;;;38.20;;
16039;SDS011;8124;48.634;8.120;2023-09-19T10:45:22;43.65;;;38.95;;
16039;SDS011;8124;48.634;8.120;2023-09-19T10:50:30;43.75;;;38.60;;
16039;SDS011;8124;48.634;8.120;2023-09-19T10:55:36;43.95;;;38.58;;
16039;SDS011;8124;48.634;8.120;2023-09-19T11:00:52;43.00;;;38.30;;
16039;SDS011;8124;48.634;8.120;2023-09-19T11:06:03;43.67;;;38.58;;
16039;SDS011;8124;48.634;8.120;2023-09-19T11:22:20;43.22;;;38.53;;
16039;SDS011;8124;48.634;8.120;2023-09-19T11:27:23;45.30;;;39.22;;
16039;SDS011;8124;48.634;8.120;2023-09-19T11:38:08;47.08;;;39.08;;
16039;SDS011;8124;48.634;8.120;2023-09-19T11:43:30;43.17;;;38.42;;
16039;SDS011;8124;48.634;8.120;2023-09-19T11:48:35;43.33;;;38.63;;
16039;SDS011;8124;48.634;8.120;2023-09-19T11:53:44;45.20;;;38.90;;
16039;SDS011;8124;48.634;8.120;2023-09-19T11:58:49;44.45;;;38.72;;
16039;SDS011;8124;48.634;8.120;2023-09-19T12:03:56;42.90;;;38.20;;
16039;SDS011;8124;48.634;8.120;2023-09-19T12:09:01;43.20;;;38.53;;
16039;SDS011;8124;48.634;8.120;2023-09-19T12:14:08;42.85;;;38.15;;
16039;SDS011;8124;48.634;8.120;2023-09-19T12:19:17;42.85;;;38.08;;
16039;SDS011;8124;48.634;8.120;2023-09-19T12:24:24;43.80;;;38.95;;
16039;SDS011;8124;48.634;8.120;2023-09-19T12:29:32;42.92;;;38.25;;
16039;SDS011;8124;48.634;8.120;2023-09-19T12:34:50;43.33;;;38.47;;
16039;SDS011;8124;48.634;8.120;2023-09-19T12:40:03;42.83;;;38.15;;
16039;SDS011;8124;48.634;8.120;2023-09-19T12:45:17;44.05;;;38.38;;
16039;SDS011;8124;48.634;8.120;2023-09-19T12:50:20;42.90;;;38.10;;
16039;SDS011;8124;48.634;8.120;2023-09-19T12:55:32;45.42;;;38.35;;
16039;SDS011;8124;48.634;8.120;2023-09-19T13:00:35;43.30;;;38.60;;
16039;SDS011;8124;48.634;8.120;2023-09-19T13:05:49;43.47;;;38.50;;
16039;SDS011;8124;48.634;8.120;2023-09-19T13:11:06;43.33;;;38.38;;
16039;SDS011;8124;48.634;8.120;2023-09-19T13:16:14;43.55;;;38.63;;
16039;SDS011;8124;48.634;8.120;2023-09-19T13:21:28;45.47;;;38.40;;
16039;SDS011;8124;48.634;8.120;2023-09-19T13:26:41;43.88;;;39.13;;
16039;SDS011;8124;48.634;8.120;2023-09-19T13:31:45;43.15;;;38.45;;
16039;SDS011;8124;48.634;8.120;2023-09-19T13:36:49;43.35;;;38.60;;
16039;SDS011;8124;48.634;8.120;2023-09-19T13:41:53;44.03;;;38.72;;
16039;SDS011;8124;48.634;8.120;2023-09-19T13:46:56;43.33;;;38.63;;
16039;SDS011;8124;48.634;8.120;2023-09-19T13:52:00;43.20;;;38.50;;
16039;SDS011;8124;48.634;8.120;2023-09-19T13:57:06;45.15;;;39.25;;
16039;SDS011;8124;48.634;8.120;2023-09-19T14:02:11;43.53;;;38.83;;
16039;SDS011;8124;48.634;8.120;2023-09-19T14:07:15;43.38;;;38.70;;
16039;SDS011;8124;48.634;8.120;2023-09-19T14:12:20;43.45;;;38.72;;
16039;SDS011;8124;48.634;8.120;2023-09-19T14:17:23;43.67;;;38.97;;
16039;SDS011;8124;48.634;8.120;2023-09-19T14:22:27;43.97;;;39.22;;
16039;SDS011;8124;48.634;8.120;2023-09-19T14:27:32;43.47;;;38.78;;
16039;SDS011;8124;48.634;8.120;2023-09-19T14:32:36;43.75;;;38.95;;
16039;SDS011;8124;48.634;8.120;2023-09-19T14:37:41;43.25;;;38.60;;
16039;SDS011;8124;48.634;8.120;2023-09-19T14:42:53;43.47;;;38.65;;
16039;SDS011;8124;48.634;8.120;2023-09-19T14:48:17;43.35;;;38.65;;
16039;SDS011;8124;48.634;8.120;2023-09-19T14:53:20;43.30;;;38.63;;
16039;SDS011;8124;48.634;8.120;2023-09-19T14:58:28;44.30;;;39.50;;
16039;SDS011;8124;48.634;8.120;2023-09-19T15:03:31;43.42;;;38.50;;
16039;SDS011;8124;48.634;8.120;2023-09-19T15:08:38;43.80;;;39.05;;
16039;SDS011;8124;48.634;8.120;2023-09-19T15:13:44;43.78;;;39.05;;
16039;SDS011;8124;48.634;8.120;2023-09-19T15:18:53;45.72;;;39.08;;
16039;SDS011;8124;48.634;8.120;2023-09-19T15:24:03;43.75;;;38.95;;
16039;SDS011;8124;48.634;8.120;2023-09-19T15:29:08;43.65;;;38.95;;
16039;SDS011;8124;48.634;8.120;2023-09-19T15:34:18;44.10;;;39.38;;
16039;SDS011;8124;48.634;8.120;2023-09-19T15:39:29;43.63;;;38.92;;
16039;SDS011;8124;48.634;8.120;2023-09-19T15:44:39;43.63;;;38.83;;
16039;SDS011;8124;48.634;8.120;2023-09-19T15:49:44;43.42;;;38.53;;
16039;SDS011;8124;48.634;8.120;2023-09-19T15:54:47;43.38;;;38.67;;
16039;SDS011;8124;48.634;8.120;2023-09-19T15:59:54;43.75;;;39.05;;
16039;SDS011;8124;48.634;8.120;2023-09-19T16:04:59;43.22;;;38.53;;
16039;SDS011;8124;48.634;8.120;2023-09-19T16:10:03;44.95;;;38.67;;
16039;SDS011;8124;48.634;8.120;2023-09-19T16:15:08;43.35;;;38.65;;
16039;SDS011;8124;48.634;8.120;2023-09-19T16:20:15;43.33;;;38.63;;
16039;SDS011;8124;48.634;8.120;2023-09-19T16:25:18;43.35;;;38.65;;
16039;SDS011;8124;48.634;8.120;2023-09-19T16:30:23;45.53;;;39.40;;
16039;SDS011;8124;48.634;8.120;2023-09-19T16:35:28;43.97;;;39.00;;
16039;SDS011;8124;48.634;8.120;2023-09-19T16:40:31;44.13;;;38.42;;
16039;SDS011;8124;48.634;8.120;2023-09-19T16:45:45;43.88;;;38.92;;
16039;SDS011;8124;48.634;8.120;2023-09-19T16:51:02;44.15;;;39.35;;
16039;SDS011;8124;48.634;8.120;2023-09-19T16:56:25;43.60;;;38.90;;
16039;SDS011;8124;48.634;8.120;2023-09-19T17:01:32;43.58;;;38.88;;
16039;SDS011;8124;48.634;8.120;2023-09-19T17:06:42;43.95;;;39.25;;
16039;SDS011;8124;48.634;8.120;2023-09-19T17:11:48;43.85;;;39.05;;
16039;SDS011;8124;48.634;8.120;2023-09-19T17:16:53;43.60;;;38.92;;
16039;SDS011;8124;48.634;8.120;2023-09-19T17:21:56;43.65;;;38.80;;
16039;SDS011;8124;48.634;8.120;2023-09-19T17:27:10;43.40;;;38.70;;
16039;SDS011;8124;48.634;8.120;2023-09-19T17:32:15;43.63;;;38.92;;
16039;SDS011;8124;48.634;8.120;2023-09-19T17:37:19;43.67;;;38.88;;
16039;SDS011;8124;48.634;8.120;2023-09-19T17:42:24;43.78;;;38.95;;
16039;SDS011;8124;48.634;8.120;2023-09-19T17:47:31;43.25;;;38.58;;
16039;SDS011;8124;48.634;8.120;2023-09-19T17:52:40;45.33;;;38.97;;
16039;SDS011;8124;48.634;8.120;2023-09-19T17:57:45;43.20;;;38.50;;
16039;SDS011;8124;48.634;8.120;2023-09-19T18:08:39;43.90;;;38.78;;
16039;SDS011;8124;48.634;8.120;2023-09-19T18:13:52;42.85;;;38.25;;
16039;SDS011;8124;48.634;8.120;2023-09-19T18:19:01;43.92;;;39.03;;
16039;SDS011;8124;48.634;8.120;2023-09-19T18:24:05;42.97;;;38.35;;
16039;SDS011;8124;48.634;8.120;2023-09-19T18:29:21;43.45;;;38.75;;
16039;SDS011;8124;48.634;8.120;2023-09-19T18:34:30;43.05;;;38.35;;
16039;SDS011;8124;48.634;8.120;2023-09-19T18:39:39;42.95;;;38.30;;
16039;SDS011;8124;48.634;8.120;2023-09-19T18:45:02;46.10;;;38.42;;
16039;SDS011;8124;48.634;8.120;2023-09-19T18:50:13;44.05;;;38.25;;
16039;SDS011;8124;48.634;8.120;2023-09-19T18:55:46;43.17;;;38.50;;
16039;SDS011;8124;48.634;8.120;2023-09-19T19:01:08;43.50;;;38.80;;
16039;SDS011;8124;48.634;8.120;2023-09-19T19:06:17;42.72;;;38.00;;
16039;SDS011;8124;48.634;8.120;2023-09-19T19:11:24;42.95;;;38.25;;
16039;SDS011;8124;48.634;8.120;2023-09-19T19:16:35;43.13;;;38.42;;
16039;SDS011;8124;48.634;8.120;2023-09-19T19:21:40;43.08;;;38.38;;
16039;SDS011;8124;48.634;8.120;2023-09-19T19:26:47;43.53;;;38.83;;
16039;SDS011;8124;48.634;8.120;2023-09-19T19:31:50;43.08;;;38.38;;
16039;SDS011;8124;48.634;8.120;2023-09-19T19:36:56;42.63;;;37.90;;
16039;SDS011;8124;48.634;8.120;2023-09-19T19:41:59;43.33;;;38.63;;
16039;SDS011;8124;48.634;8.120;2023-09-19T19:47:03;43.28;;;38.58;;
16039;SDS011;8124;48.634;8.120;2023-09-19T19:52:09;42.58;;;37.97;;
16039;SDS011;8124;48.634;8.120;2023-09-19T19:57:12;43.42;;;37.92;;
16039;SDS011;8124;48.634;8.120;2023-09-19T20:02:15;43.22;;;38.53;;
16039;SDS011;8124;48.634;8.120;2023-09-19T20:07:20;42.88;;;37.97;;
16039;SDS011;8124;48.634;8.120;2023-09-19T20:12:24;42.55;;;37.95;;
16039;SDS011;8124;48.634;8.120;2023-09-19T20:17:27;43.35;;;38.65;;
16039;SDS011;8124;48.634;8.120;2023-09-19T20:22:32;42.97;;;37.92;;
16039;SDS011;8124;48.634;8.120;2023-09-19T20:27:36;43.00;;;38.30;;
16039;SDS011;8124;48.634;8.120;2023-09-19T20:32:41;43.28;;;38.58;;
16039;SDS011;8124;48.634;8.120;2023-09-19T20:37:46;42.63;;;38.00;;
16039;SDS011;8124;48.634;8.120;2023-09-19T20:42:51;43.15;;;38.35;;
16039;SDS011;8124;48.634;8.120;2023-09-19T20:47:55;45.80;;;38.70;;
16039;SDS011;8124;48.634;8.120;2023-09-19T20:53:00;42.95;;;38.15;;
16039;SDS011;8124;48.634;8.120;2023-09-19T20:58:03;43.05;;;38.10;;
16039;SDS011;8124;48.634;8.120;2023-09-19T21:03:07;43.00;;;38.30;;
16039;SDS011;8124;48.634;8.120;2023-09-19T21:08:16;42.75;;;38.05;;
16039;SDS011;8124;48.634;8.120;2023-09-19T21:13:19;43.25;;;37.90;;
16039;SDS011;8124;48.634;8.120;2023-09-19T21:18:22;43.97;;;38.47;;
16039;SDS011;8124;48.634;8.120;2023-09-19T21:23:27;43.15;;;38.45;;
16039;SDS011;8124;48.634;8.120;2023-09-19T21:28:30;42.47;;;37.75;;
16039;SDS011;8124;48.634;8.120;2023-09-19T21:33:34;42.25;;;37.65;;
16039;SDS011;8124;48.634;8.120;2023-09-19T21:38:39;42.72;;;38.03;;
16039;SDS011;8124;48.634;8.120;2023-09-19T21:43:43;42.78;;;37.65;;
16039;SDS011;8124;48.634;8.120;2023-09-19T21:48:46;42.17;;;37.58;;
16039;SDS011;8124;48.634;8.120;2023-09-19T21:53:53;44.63;;;37.95;;
16039;SDS011;8124;48.634;8.120;2023-09-19T21:58:58;42.78;;;38.10;;
16039;SDS011;8124;48.634;8.120;2023-09-19T22:04:01;43.65;;;37.80;;
16039;SDS011;8124;48.634;8.120;2023-09-19T22:09:06;42.75;;;38.05;;
16039;SDS011;8124;48.634;8.120;2023-09-19T22:14:10;42.75;;;37.97;;
16039;SDS011;8124;48.634;8.120;2023-09-19T22:19:13;42.50;;;37.83;;
16039;SDS011;8124;48.634;8.120;2023-09-19T22:24:18;43.10;;;37.45;;
16039;SDS011;8124;48.634;8.120;2023-09-19T22:29:22;42.08;;;37.47;;
16039;SDS011;8124;48.634;8.120;2023-09-19T22:34:25;44.33;;;37.65;;
16039;SDS011;8124;48.634;8.120;2023-09-19T22:39:30;43.63;;;37.67;;
16039;SDS011;8124;48.634;8.120;2023-09-19T22:44:36;42.97;;;37.60;;
16039;SDS011;8124;48.634;8.120;2023-09-19T22:49:40;43.70;;;37.60;;
16039;SDS011;8124;48.634;8.120;2023-09-19T22:54:44;42.42;;;37.67;;
16039;SDS011;8124;48.634;8.120;2023-09-19T22:59:49;42.83;;;37.72;;
16039;SDS011;8124;48.634;8.120;2023-09-19T23:04:53;42.83;;;37.38;;
16039;SDS011;8124;48.634;8.120;2023-09-19T23:10:03;42.35;;;37.72;;
16039;SDS011;8124;48.634;8.120;2023-09-19T23:15:07;42.85;;;37.60;;
16039;SDS011;8124;48.634;8.120;2023-09-19T23:20:15;43.30;;;37.67;;
16039;SDS011;8124;48.634;8.120;2023-09-19T23:25:21;42.33;;;37.67;;
16039;SDS011;8124;48.634;8.120;2023-09-19T23:30:29;44.55;;;38.30;;
16039;SDS011;8124;48.634;8.120;2023-09-19T23:35:34;42.38;;;37.65;;
16039;SDS011;8124;48.634;8.120;2023-09-19T23:40:38;42.20;;;37.60;;
16039;SDS011;8124;48.634;8.120;2023-09-19T23:45:41;42.58;;;37.72;;
16039;SDS011;8124;48.634;8.120;2023-09-19T23:50:46;45.30;;;37.58;;
16039;SDS011;8124;48.634;8.120;2023-09-19T23:55:51;42.05;;;37.45;;
